sensor_id;sensor_type;location;lat;lon;timestamp;pressure;altitude;pressure_sealevel;temperature;humidity
13367;BME280;6752;52.612;13.630;2023-03-26T00:03:32;99492.28;;;8.02;100.00
13367;BME280;6752;52.612;13.630;2023-03-26T00:08:34;99498.46;;;8.09;100.00
13367;BME280;6752;52.612;13.630;2023-03-26T00:13:39;99506.56;;;8.03;100.00
13367;BME280;6752;52.612;13.630;2023-03-26T00:18:42;99509.48;;;8.05;100.00
13367;BME280;6752;52.612;13.630;2023-03-26T00:23:47;99514.33;;;8.09;100.00
13367;BME280;6752;52.612;13.630;2023-03-26T00:28:49;99510.08;;;8.07;100.00
13367;BME280;6752;52.612;13.630;2023-03-26T00:33:53;99512.85;;;8.10;100.00
13367;BME280;6752;52.612;13.630;2023-03-26T00:38:55;99499.28;;;8.10;100.00
13367;BME280;6752;52.612;13.630;2023-03-26T00:43:58;99495.98;;;8.08;100.00
13367;BME280;6752;52.612;13.630;2023-03-26T00:49:00;99516.62;;;8.09;100.00
13367;BME280;6752;52.612;13.630;2023-03-26T00:54:02;99503.70;;;8.07;100.00
13367;BME280;6752;52.612;13.630;2023-03-26T00:59:05;99514.50;;;8.11;100.00
13367;BME280;6752;52.612;13.630;2023-03-26T01:04:20;99517.92;;;8.06;100.00
13367;BME280;6752;52.612;13.630;2023-03-26T01:09:20;99515.63;;;8.06;100.00
13367;BME280;6752;52.612;13.630;2023-03-26T01:14:24;99522.43;;;8.03;100.00
13367;BME280;6752;52.612;13.630;2023-03-26T01:19:46;99527.33;;;8.04;100.00
13367;BME280;6752;52.612;13.630;2023-03-26T01:24:47;99525.61;;;8.00;100.00
13367;BME280;6752;52.612;13.630;2023-03-26T01:29:56;99529.56;;;7.95;100.00
13367;BME280;6752;52.612;13.630;2023-03-26T01:40:05;99518.70;;;7.89;100.00
13367;BME280;6752;52.612;13.630;2023-03-26T01:45:09;99527.91;;;7.94;100.00
13367;BME280;6752;52.612;13.630;2023-03-26T01:50:11;99529.48;;;7.87;100.00
13367;BME280;6752;52.612;13.630;2023-03-26T01:55:17;99525.91;;;7.80;100.00
13367;BME280;6752;52.612;13.630;2023-03-26T02:00:32;99532.84;;;7.70;100.00
13367;BME280;6752;52.612;13.630;2023-03-26T02:10:57;99534.23;;;7.61;100.00
13367;BME280;6752;52.612;13.630;2023-03-26T02:16:00;99533.53;;;7.57;100.00
13367;BME280;6752;52.612;13.630;2023-03-26T02:21:10;99527.74;;;7.53;100.00
13367;BME280;6752;52.612;13.630;2023-03-26T02:26:18;99538.11;;;7.59;100.00
13367;BME280;6752;52.612;13.630;2023-03-26T02:31:20;99541.47;;;7.58;100.00
13367;BME280;6752;52.612;13.630;2023-03-26T02:36:24;99546.38;;;7.55;100.00
13367;BME280;6752;52.612;13.630;2023-03-26T02:41:26;99542.66;;;7.53;100.00
13367;BME280;6752;52.612;13.630;2023-03-26T02:46:28;99554.78;;;7.50;100.00
13367;BME280;6752;52.612;13.630;2023-03-26T02:51:33;99559.56;;;7.52;100.00
13367;BME280;6752;52.612;13.630;2023-03-26T02:56:35;99565.77;;;7.55;100.00
13367;BME280;6752;52.612;13.630;2023-03-26T03:01:37;99565.05;;;7.58;100.00
13367;BME280;6752;52.612;13.630;2023-03-26T03:06:40;99566.41;;;7.54;100.00
13367;BME280;6752;52.612;13.630;2023-03-26T03:11:43;99566.39;;;7.48;100.00
13367;BME280;6752;52.612;13.630;2023-03-26T03:16:45;99567.50;;;7.44;100.00
13367;BME280;6752;52.612;13.630;2023-03-26T03:21:48;99572.53;;;7.50;100.00
13367;BME280;6752;52.612;13.630;2023-03-26T03:26:50;99564.94;;;7.55;100.00
13367;BME280;6752;52.612;13.630;2023-03-26T03:31:52;99582.04;;;7.55;100.00
13367;BME280;6752;52.612;13.630;2023-03-26T03:36:59;99572.42;;;7.60;100.00
13367;BME280;6752;52.612;13.630;2023-03-26T03:42:01;99576.14;;;7.62;100.00
13367;BME280;6752;52.612;13.630;2023-03-26T03:47:04;99589.75;;;7.59;100.00
13367;BME280;6752;52.612;13.630;2023-03-26T03:52:06;99589.66;;;7.65;100.00
13367;BME280;6752;52.612;13.630;2023-03-26T03:57:08;99585.24;;;7.67;100.00
13367;BME280;6752;52.612;13.630;2023-03-26T04:02:11;99588.00;;;7.64;100.00
13367;BME280;6752;52.612;13.630;2023-03-26T04:07:13;99589.42;;;7.67;100.00
13367;BME280;6752;52.612;13.630;2023-03-26T04:12:16;99595.33;;;7.69;100.00
13367;BME280;6752;52.612;13.630;2023-03-26T04:17:18;99597.56;;;7.67;100.00
13367;BME280;6752;52.612;13.630;2023-03-26T04:22:22;99595.03;;;7.68;100.00
13367;BME280;6752;52.612;13.630;2023-03-26T04:27:25;99599.23;;;7.74;100.00
13367;BME280;6752;52.612;13.630;2023-03-26T04:32:28;99601.12;;;7.73;100.00
13367;BME280;6752;52.612;13.630;2023-03-26T04:37:30;99608.25;;;7.71;100.00
13367;BME280;6752;52.612;13.630;2023-03-26T04:42:32;99611.79;;;7.71;100.00
13367;BME280;6752;52.612;13.630;2023-03-26T04:47:35;99610.84;;;7.72;100.00
13367;BME280;6752;52.612;13.630;2023-03-26T04:52:37;99610.84;;;7.72;100.00
13367;BME280;6752;52.612;13.630;2023-03-26T04:57:40;99617.63;;;7.72;100.00
13367;BME280;6752;52.612;13.630;2023-03-26T05:02:42;99606.55;;;7.73;100.00
13367;BME280;6752;52.612;13.630;2023-03-26T05:07:44;99614.57;;;7.74;100.00
13367;BME280;6752;52.612;13.630;2023-03-26T05:12:47;99602.06;;;7.73;100.00
13367;BME280;6752;52.612;13.630;2023-03-26T05:17:49;99607.95;;;7.70;100.00
13367;BME280;6752;52.612;13.630;2023-03-26T05:22:51;99601.75;;;7.66;100.00
13367;BME280;6752;52.612;13.630;2023-03-26T05:27:53;99607.66;;;7.69;100.00
13367;BME280;6752;52.612;13.630;2023-03-26T05:32:56;99614.59;;;7.65;100.00
13367;BME280;6752;52.612;13.630;2023-03-26T05:37:58;99608.91;;;7.60;100.00
13367;BME280;6752;52.612;13.630;2023-03-26T05:43:00;99621.09;;;7.69;100.00
13367;BME280;6752;52.612;13.630;2023-03-26T05:48:02;99625.39;;;7.68;100.00
13367;BME280;6752;52.612;13.630;2023-03-26T05:53:05;99627.87;;;7.69;100.00
13367;BME280;6752;52.612;13.630;2023-03-26T05:58:07;99625.92;;;7.67;100.00
13367;BME280;6752;52.612;13.630;2023-03-26T06:03:09;99623.07;;;7.62;100.00
13367;BME280;6752;52.612;13.630;2023-03-26T06:08:12;99630.66;;;7.72;100.00
13367;BME280;6752;52.612;13.630;2023-03-26T06:13:14;99638.70;;;7.79;100.00
13367;BME280;6752;52.612;13.630;2023-03-26T06:18:16;99640.19;;;7.87;100.00
13367;BME280;6752;52.612;13.630;2023-03-26T06:23:19;99644.84;;;7.80;100.00
13367;BME280;6752;52.612;13.630;2023-03-26T06:28:21;99643.77;;;7.75;100.00
13367;BME280;6752;52.612;13.630;2023-03-26T06:33:24;99643.59;;;7.64;100.00
13367;BME280;6752;52.612;13.630;2023-03-26T06:38:26;99650.52;;;7.51;100.00
13367;BME280;6752;52.612;13.630;2023-03-26T06:43:28;99642.19;;;7.49;100.00
13367;BME280;6752;52.612;13.630;2023-03-26T06:48:31;99646.38;;;7.48;100.00
13367;BME280;6752;52.612;13.630;2023-03-26T06:53:33;99647.33;;;7.39;100.00
13367;BME280;6752;52.612;13.630;2023-03-26T06:58:35;99651.59;;;7.59;100.00
13367;BME280;6752;52.612;13.630;2023-03-26T07:03:42;99644.05;;;7.94;100.00
13367;BME280;6752;52.612;13.630;2023-03-26T07:08:44;99643.91;;;8.28;100.00
13367;BME280;6752;52.612;13.630;2023-03-26T07:13:47;99637.62;;;8.79;100.00
13367;BME280;6752;52.612;13.630;2023-03-26T07:18:49;99640.95;;;8.72;100.00
13367;BME280;6752;52.612;13.630;2023-03-26T07:23:52;99652.45;;;8.85;100.00
13367;BME280;6752;52.612;13.630;2023-03-26T07:28:57;99639.03;;;8.93;100.00
13367;BME280;6752;52.612;13.630;2023-03-26T07:44:43;99634.48;;;9.19;100.00
13367;BME280;6752;52.612;13.630;2023-03-26T07:49:46;99641.29;;;9.14;100.00
13367;BME280;6752;52.612;13.630;2023-03-26T07:54:48;99639.59;;;9.04;100.00
13367;BME280;6752;52.612;13.630;2023-03-26T08:00:00;99640.59;;;9.06;100.00
13367;BME280;6752;52.612;13.630;2023-03-26T08:10:16;99643.63;;;9.57;100.00
13367;BME280;6752;52.612;13.630;2023-03-26T08:15:22;99648.95;;;9.40;100.00
13367;BME280;6752;52.612;13.630;2023-03-26T08:20:36;99645.36;;;9.19;100.00
13367;BME280;6752;52.612;13.630;2023-03-26T08:26:06;99651.16;;;9.11;100.00
13367;BME280;6752;52.612;13.630;2023-03-26T08:31:06;99647.27;;;9.07;100.00
13367;BME280;6752;52.612;13.630;2023-03-26T08:36:08;99653.56;;;8.87;100.00
13367;BME280;6752;52.612;13.630;2023-03-26T08:57:38;99641.81;;;8.90;100.00
13367;BME280;6752;52.612;13.630;2023-03-26T09:19:32;99634.75;;;8.41;100.00
13367;BME280;6752;52.612;13.630;2023-03-26T09:40:20;99631.66;;;8.85;100.00
13367;BME280;6752;52.612;13.630;2023-03-26T09:45:40;99640.78;;;8.28;100.00
13367;BME280;6752;52.612;13.630;2023-03-26T09:50:54;99641.20;;;8.19;100.00
13367;BME280;6752;52.612;13.630;2023-03-26T09:56:07;99651.31;;;8.27;100.00
13367;BME280;6752;52.612;13.630;2023-03-26T10:01:19;99640.25;;;8.50;100.00
13367;BME280;6752;52.612;13.630;2023-03-26T10:06:27;99654.34;;;8.37;100.00
13367;BME280;6752;52.612;13.630;2023-03-26T10:11:55;99645.73;;;8.55;100.00
13367;BME280;6752;52.612;13.630;2023-03-26T10:22:12;99651.21;;;8.52;100.00
13367;BME280;6752;52.612;13.630;2023-03-26T10:27:22;99639.11;;;8.57;100.00
13367;BME280;6752;52.612;13.630;2023-03-26T10:37:57;99642.08;;;8.67;100.00
13367;BME280;6752;52.612;13.630;2023-03-26T10:43:19;99637.23;;;8.70;100.00
13367;BME280;6752;52.612;13.630;2023-03-26T10:48:29;99640.65;;;9.27;100.00
13367;BME280;6752;52.612;13.630;2023-03-26T10:58:35;99627.05;;;9.70;100.00
13367;BME280;6752;52.612;13.630;2023-03-26T11:03:53;99641.17;;;9.64;100.00
13367;BME280;6752;52.612;13.630;2023-03-26T11:14:19;99642.64;;;9.19;100.00
13367;BME280;6752;52.612;13.630;2023-03-26T11:19:29;99642.27;;;9.57;100.00
13367;BME280;6752;52.612;13.630;2023-03-26T11:34:55;99623.08;;;11.33;100.00
13367;BME280;6752;52.612;13.630;2023-03-26T11:39:55;99620.41;;;11.98;100.00
13367;BME280;6752;52.612;13.630;2023-03-26T11:45:41;99614.16;;;12.38;100.00
13367;BME280;6752;52.612;13.630;2023-03-26T11:50:02;99608.80;;;12.08;100.00
13367;BME280;6752;52.612;13.630;2023-03-26T11:55:04;99603.61;;;12.52;99.76
13367;BME280;6752;52.612;13.630;2023-03-26T12:00:07;99604.22;;;12.91;97.21
13367;BME280;6752;52.612;13.630;2023-03-26T12:10:21;99593.06;;;13.66;93.40
13367;BME280;6752;52.612;13.630;2023-03-26T12:15:23;99580.80;;;12.84;91.59
13367;BME280;6752;52.612;13.630;2023-03-26T12:25:34;99566.85;;;13.04;95.26
13367;BME280;6752;52.612;13.630;2023-03-26T12:30:36;99555.38;;;12.68;89.46
13367;BME280;6752;52.612;13.630;2023-03-26T12:35:40;99553.58;;;12.83;95.54
13367;BME280;6752;52.612;13.630;2023-03-26T12:40:43;99559.45;;;12.31;99.83
13367;BME280;6752;52.612;13.630;2023-03-26T12:45:47;99552.61;;;12.63;90.40
13367;BME280;6752;52.612;13.630;2023-03-26T12:56:11;99552.73;;;11.67;100.00
13367;BME280;6752;52.612;13.630;2023-03-26T13:06:31;99557.33;;;11.75;98.81
13367;BME280;6752;52.612;13.630;2023-03-26T13:11:56;99556.63;;;11.61;99.60
13367;BME280;6752;52.612;13.630;2023-03-26T13:17:03;99548.47;;;11.85;100.00
13367;BME280;6752;52.612;13.630;2023-03-26T13:38:02;99531.69;;;12.46;92.58
13367;BME280;6752;52.612;13.630;2023-03-26T13:43:17;99530.00;;;12.08;92.35
13367;BME280;6752;52.612;13.630;2023-03-26T13:48:20;99532.73;;;11.73;92.96
13367;BME280;6752;52.612;13.630;2023-03-26T13:53:21;99539.88;;;11.41;97.80
13367;BME280;6752;52.612;13.630;2023-03-26T13:58:40;99536.50;;;11.45;98.92
13367;BME280;6752;52.612;13.630;2023-03-26T14:08:58;99533.33;;;11.42;97.52
13367;BME280;6752;52.612;13.630;2023-03-26T14:14:04;99537.49;;;11.72;94.01
13367;BME280;6752;52.612;13.630;2023-03-26T14:25:00;99535.94;;;12.48;89.01
13367;BME280;6752;52.612;13.630;2023-03-26T14:35:37;99524.36;;;12.20;82.21
13367;BME280;6752;52.612;13.630;2023-03-26T14:51:33;99528.80;;;11.39;87.01
13367;BME280;6752;52.612;13.630;2023-03-26T14:56:46;99522.28;;;11.65;91.18
13367;BME280;6752;52.612;13.630;2023-03-26T15:12:35;99524.23;;;11.58;89.22
13367;BME280;6752;52.612;13.630;2023-03-26T15:49:53;99504.72;;;11.69;87.11
13367;BME280;6752;52.612;13.630;2023-03-26T15:55:00;99510.17;;;11.80;85.83
13367;BME280;6752;52.612;13.630;2023-03-26T16:00:08;99515.78;;;11.46;90.98
13367;BME280;6752;52.612;13.630;2023-03-26T16:05:26;99503.40;;;11.06;86.60
13367;BME280;6752;52.612;13.630;2023-03-26T16:15:36;99506.06;;;10.90;92.32
13367;BME280;6752;52.612;13.630;2023-03-26T16:20:46;99506.37;;;10.74;94.16
13367;BME280;6752;52.612;13.630;2023-03-26T16:36:14;99520.81;;;10.47;95.26
13367;BME280;6752;52.612;13.630;2023-03-26T16:41:17;99523.39;;;10.39;98.94
13367;BME280;6752;52.612;13.630;2023-03-26T16:46:41;99524.06;;;10.21;96.85
13367;BME280;6752;52.612;13.630;2023-03-26T17:07:44;99544.20;;;9.86;100.00
13367;BME280;6752;52.612;13.630;2023-03-26T17:13:02;99552.73;;;9.84;100.00
13367;BME280;6752;52.612;13.630;2023-03-26T17:18:15;99553.38;;;9.68;100.00
13367;BME280;6752;52.612;13.630;2023-03-26T17:23:21;99559.84;;;9.30;100.00
13367;BME280;6752;52.612;13.630;2023-03-26T17:28:40;99561.38;;;9.20;100.00
13367;BME280;6752;52.612;13.630;2023-03-26T17:33:39;99572.92;;;8.96;100.00
13367;BME280;6752;52.612;13.630;2023-03-26T17:43:50;99570.83;;;8.42;100.00
13367;BME280;6752;52.612;13.630;2023-03-26T17:48:58;99580.20;;;8.28;100.00
13367;BME280;6752;52.612;13.630;2023-03-26T17:53:55;99584.89;;;8.09;100.00
13367;BME280;6752;52.612;13.630;2023-03-26T17:58:57;99591.67;;;7.94;100.00
13367;BME280;6752;52.612;13.630;2023-03-26T18:04:00;99596.84;;;7.80;100.00
13367;BME280;6752;52.612;13.630;2023-03-26T18:14:46;99600.38;;;7.57;100.00
13367;BME280;6752;52.612;13.630;2023-03-26T18:19:53;99598.98;;;7.36;100.00
13367;BME280;6752;52.612;13.630;2023-03-26T18:24:58;99599.09;;;7.35;100.00
13367;BME280;6752;52.612;13.630;2023-03-26T18:30:00;99609.82;;;7.05;100.00
13367;BME280;6752;52.612;13.630;2023-03-26T18:35:13;99608.61;;;6.80;100.00
13367;BME280;6752;52.612;13.630;2023-03-26T18:40:15;99612.67;;;6.80;100.00
13367;BME280;6752;52.612;13.630;2023-03-26T18:50:32;99614.06;;;6.76;100.00
13367;BME280;6752;52.612;13.630;2023-03-26T18:55:31;99620.78;;;6.70;100.00
13367;BME280;6752;52.612;13.630;2023-03-26T19:00:33;99625.03;;;6.72;100.00
13367;BME280;6752;52.612;13.630;2023-03-26T19:05:35;99622.59;;;6.67;100.00
13367;BME280;6752;52.612;13.630;2023-03-26T19:10:38;99629.27;;;6.65;100.00
13367;BME280;6752;52.612;13.630;2023-03-26T19:15:40;99625.44;;;6.63;100.00
13367;BME280;6752;52.612;13.630;2023-03-26T19:20:49;99623.70;;;6.44;100.00
13367;BME280;6752;52.612;13.630;2023-03-26T19:25:52;99625.52;;;6.34;100.00
13367;BME280;6752;52.612;13.630;2023-03-26T19:30:55;99633.53;;;6.23;100.00
13367;BME280;6752;52.612;13.630;2023-03-26T19:36:03;99628.05;;;6.17;100.00
13367;BME280;6752;52.612;13.630;2023-03-26T19:41:04;99631.59;;;6.17;100.00
13367;BME280;6752;52.612;13.630;2023-03-26T19:46:11;99632.33;;;6.15;100.00
13367;BME280;6752;52.612;13.630;2023-03-26T19:51:13;99638.78;;;6.11;100.00
13367;BME280;6752;52.612;13.630;2023-03-26T19:56:14;99644.35;;;6.04;100.00
13367;BME280;6752;52.612;13.630;2023-03-26T20:06:19;99649.71;;;5.84;100.00
13367;BME280;6752;52.612;13.630;2023-03-26T20:11:25;99655.06;;;5.75;100.00
13367;BME280;6752;52.612;13.630;2023-03-26T20:16:31;99662.91;;;5.61;100.00
13367;BME280;6752;52.612;13.630;2023-03-26T20:21:39;99673.44;;;5.53;100.00
13367;BME280;6752;52.612;13.630;2023-03-26T20:26:41;99677.83;;;5.48;100.00
13367;BME280;6752;52.612;13.630;2023-03-26T20:31:43;99682.31;;;5.45;100.00
13367;BME280;6752;52.612;13.630;2023-03-26T20:36:46;99679.91;;;5.39;100.00
13367;BME280;6752;52.612;13.630;2023-03-26T20:41:48;99684.91;;;5.36;100.00
13367;BME280;6752;52.612;13.630;2023-03-26T20:46:51;99692.92;;;5.33;100.00
13367;BME280;6752;52.612;13.630;2023-03-26T20:51:55;99691.05;;;5.34;100.00
13367;BME280;6752;52.612;13.630;2023-03-26T20:56:57;99702.20;;;5.21;100.00
13367;BME280;6752;52.612;13.630;2023-03-26T21:02:08;99689.42;;;5.23;100.00
13367;BME280;6752;52.612;13.630;2023-03-26T21:07:10;99695.97;;;5.21;100.00
13367;BME280;6752;52.612;13.630;2023-03-26T21:12:26;99700.95;;;5.14;100.00
13367;BME280;6752;52.612;13.630;2023-03-26T21:17:26;99709.04;;;5.17;100.00
13367;BME280;6752;52.612;13.630;2023-03-26T21:22:33;99702.52;;;5.22;100.00
13367;BME280;6752;52.612;13.630;2023-03-26T21:33:09;99713.11;;;5.24;100.00
13367;BME280;6752;52.612;13.630;2023-03-26T21:38:11;99714.95;;;5.20;100.00
13367;BME280;6752;52.612;13.630;2023-03-26T21:43:14;99721.20;;;5.17;100.00
13367;BME280;6752;52.612;13.630;2023-03-26T21:48:16;99728.38;;;5.08;100.00
13367;BME280;6752;52.612;13.630;2023-03-26T21:53:21;99735.85;;;5.12;100.00
13367;BME280;6752;52.612;13.630;2023-03-26T22:08:46;99734.92;;;4.80;100.00
13367;BME280;6752;52.612;13.630;2023-03-26T22:13:48;99750.67;;;4.69;100.00
13367;BME280;6752;52.612;13.630;2023-03-26T22:18:51;99749.21;;;4.60;100.00
13367;BME280;6752;52.612;13.630;2023-03-26T22:23:53;99753.35;;;4.50;100.00
13367;BME280;6752;52.612;13.630;2023-03-26T22:28:56;99751.73;;;4.28;100.00
13367;BME280;6752;52.612;13.630;2023-03-26T22:33:58;99758.38;;;4.29;100.00
13367;BME280;6752;52.612;13.630;2023-03-26T22:39:00;99757.59;;;4.21;100.00
13367;BME280;6752;52.612;13.630;2023-03-26T22:44:03;99764.09;;;4.06;100.00
13367;BME280;6752;52.612;13.630;2023-03-26T22:49:05;99759.43;;;4.07;100.00
13367;BME280;6752;52.612;13.630;2023-03-26T22:54:08;99762.47;;;3.94;100.00
13367;BME280;6752;52.612;13.630;2023-03-26T22:59:10;99762.83;;;3.81;100.00
13367;BME280;6752;52.612;13.630;2023-03-26T23:04:14;99768.94;;;3.79;100.00
13367;BME280;6752;52.612;13.630;2023-03-26T23:09:16;99782.73;;;3.66;100.00
13367;BME280;6752;52.612;13.630;2023-03-26T23:14:24;99784.30;;;3.68;100.00
13367;BME280;6752;52.612;13.630;2023-03-26T23:19:26;99788.09;;;3.60;100.00
13367;BME280;6752;52.612;13.630;2023-03-26T23:24:29;99798.26;;;3.61;100.00
13367;BME280;6752;52.612;13.630;2023-03-26T23:29:31;99800.57;;;3.53;100.00
13367;BME280;6752;52.612;13.630;2023-03-26T23:34:33;99813.39;;;3.48;100.00
13367;BME280;6752;52.612;13.630;2023-03-26T23:39:49;99815.34;;;3.47;100.00
13367;BME280;6752;52.612;13.630;2023-03-26T23:44:50;99825.86;;;3.28;100.00
13367;BME280;6752;52.612;13.630;2023-03-26T23:49:55;99833.45;;;3.17;100.00
13367;BME280;6752;52.612;13.630;2023-03-26T23:54:57;99834.30;;;3.21;100.00
13367;BME280;6752;52.612;13.630;2023-03-26T23:59:59;99837.91;;;3.18;100.00
